Time;durP1;ratioP1;P1;durP2;ratioP2;P2;SDS_P1;SDS_P2;PMS_P1;PMS_P2;Temp;Humidity;BMP_temperature;BMP_pressure;BME280_temperature;BME280_humidity;BME280_pressure;Samples;Min_cycle;Max_cycle;Signal;HPM_P1;HPM_P2
2023/08/11 00:00:08;;;;;;;3.05;1.85;;;22.70;99.90;;;;;;1899545;75;21200;-77
2023/08/11 00:03:02;;;;;;;2.25;1.60;;;22.70;99.90;;;;;;1903171;75;21161;-77
2023/08/11 00:05:55;;;;;;;2.08;1.60;;;22.60;99.90;;;;;;1901310;75;21092;-77
2023/08/11 00:08:47;;;;;;;2.42;2.15;;;22.50;99.90;;;;;;1889057;75;21158;-77
2023/08/11 00:11:38;;;;;;;2.20;1.75;;;22.40;99.90;;;;;;1901815;75;21269;-77
2023/08/11 00:14:30;;;;;;;3.33;2.20;;;22.30;99.90;;;;;;1903706;75;21114;-86
2023/08/11 00:17:21;;;;;;;2.10;1.70;;;22.30;99.90;;;;;;1892941;74;21146;-86
2023/08/11 00:20:13;;;;;;;2.52;1.98;;;22.20;99.90;;;;;;1903727;75;21375;-86
2023/08/11 00:25:44;;;;;;;3.70;2.30;;;22.30;99.90;;;;;;1937436;72;22334;-85
2023/08/11 00:28:35;;;;;;;2.55;1.70;;;22.20;99.90;;;;;;1885440;75;21629;-86
2023/08/11 00:31:27;;;;;;;3.08;1.75;;;22.20;99.90;;;;;;1889588;75;21373;-86
2023/08/11 00:34:19;;;;;;;2.83;1.67;;;22.10;99.90;;;;;;1886293;75;21114;-86
2023/08/11 00:37:10;;;;;;;3.20;1.75;;;22.00;99.90;;;;;;1904294;75;21244;-87
2023/08/11 00:40:03;;;;;;;2.98;1.90;;;22.00;99.90;;;;;;1899153;75;21285;-87
2023/08/11 00:42:55;;;;;;;2.70;1.87;;;22.00;99.90;;;;;;1906584;75;21174;-87
2023/08/11 00:45:49;;;;;;;2.42;1.57;;;22.00;99.90;;;;;;1895482;75;21673;-87
2023/08/11 00:48:42;;;;;;;5.15;1.90;;;22.00;99.90;;;;;;1897884;75;21118;-87
2023/08/11 00:51:34;;;;;;;4.37;1.82;;;21.90;99.90;;;;;;1901605;75;21103;-87
2023/08/11 00:54:26;;;;;;;2.30;1.72;;;21.90;99.90;;;;;;1896036;75;21145;-87
2023/08/11 00:57:18;;;;;;;2.30;1.82;;;21.90;99.90;;;;;;1893189;75;21092;-87
2023/08/11 01:00:12;;;;;;;2.75;2.10;;;22.00;99.90;;;;;;1897491;75;21111;-87
2023/08/11 01:05:45;;;;;;;3.92;2.02;;;22.20;99.90;;;;;;1933663;73;22166;-86
2023/08/11 01:08:41;;;;;;;3.00;1.90;;;22.20;99.90;;;;;;1912443;74;21155;-87
2023/08/11 01:14:22;;;;;;;3.92;2.47;;;22.30;99.90;;;;;;1938596;72;22248;-86
2023/08/11 01:17:16;;;;;;;2.83;2.10;;;22.30;99.90;;;;;;1903259;75;21656;-87
2023/08/11 01:20:11;;;;;;;2.37;2.12;;;22.20;99.90;;;;;;1899944;75;21161;-87
2023/08/11 01:25:41;;;;;;;4.83;2.15;;;22.20;99.90;;;;;;1920646;72;22220;-86
2023/08/11 01:28:35;;;;;;;3.15;2.08;;;22.10;99.90;;;;;;1902038;74;21148;-87
2023/08/11 01:31:28;;;;;;;3.10;2.42;;;21.90;99.90;;;;;;1902318;74;21126;-87
2023/08/11 01:34:19;;;;;;;4.17;2.02;;;21.60;99.90;;;;;;1902231;74;21200;-87
2023/08/11 01:37:10;;;;;;;2.67;1.90;;;21.50;99.90;;;;;;1910187;74;21139;-87
2023/08/11 01:40:10;;;;;;;2.50;2.02;;;21.50;99.90;;;;;;1908293;74;21153;-87
2023/08/11 01:45:37;;;;;;;2.00;1.80;;;21.50;99.90;;;;;;1934545;72;22326;-87
2023/08/11 01:48:30;;;;;;;6.83;1.80;;;21.50;99.90;;;;;;1897904;75;21284;-88
2023/08/11 01:51:22;;;;;;;2.80;1.65;;;21.50;99.90;;;;;;1875540;76;21166;-88
2023/08/11 01:54:14;;;;;;;2.30;1.70;;;21.40;99.90;;;;;;1900006;75;21154;-88
2023/08/11 01:57:06;;;;;;;3.08;1.52;;;21.40;99.90;;;;;;1906504;75;21730;-87
2023/08/11 01:59:58;;;;;;;2.80;1.82;;;21.40;99.90;;;;;;1899014;74;21138;-88
2023/08/11 02:02:50;;;;;;;1.60;1.45;;;21.50;99.90;;;;;;1891458;75;21196;-88
2023/08/11 02:05:42;;;;;;;2.10;1.50;;;21.50;99.90;;;;;;1903265;75;21133;-88
2023/08/11 02:08:33;;;;;;;2.08;1.55;;;21.40;99.90;;;;;;1884844;75;21167;-88
2023/08/11 02:11:25;;;;;;;3.10;1.77;;;21.30;99.90;;;;;;1892114;75;21180;-88
2023/08/11 02:14:17;;;;;;;2.58;1.70;;;21.30;99.90;;;;;;1902785;75;21476;-88
2023/08/11 02:17:09;;;;;;;3.60;1.77;;;21.30;99.90;;;;;;1907149;75;21179;-87
2023/08/11 02:20:09;;;;;;;3.33;1.50;;;21.30;99.90;;;;;;1873765;76;21225;-88
2023/08/11 02:22:54;;;;;;;2.58;1.90;;;21.30;99.90;;;;;;1876054;76;21151;-88
2023/08/11 02:25:46;;;;;;;2.15;1.40;;;21.20;99.90;;;;;;1893964;75;21162;-88
2023/08/11 02:28:39;;;;;;;3.12;1.87;;;21.20;99.90;;;;;;1892874;75;21139;-89
2023/08/11 02:31:31;;;;;;;2.55;1.57;;;21.30;99.90;;;;;;1895947;75;21127;-88
2023/08/11 02:34:23;;;;;;;2.55;1.60;;;21.20;99.90;;;;;;1902559;75;21136;-88
2023/08/11 02:37:15;;;;;;;3.08;1.75;;;21.30;99.90;;;;;;1890452;75;21148;-88
2023/08/11 02:40:11;;;;;;;2.92;1.62;;;21.20;99.90;;;;;;1892791;75;21172;-88
2023/08/11 02:43:03;;;;;;;3.12;1.82;;;21.20;99.90;;;;;;1887507;75;21142;-88
2023/08/11 02:45:54;;;;;;;2.60;1.75;;;21.10;99.90;;;;;;1908072;74;21179;-90
2023/08/11 02:48:46;;;;;;;3.90;1.95;;;20.80;99.90;;;;;;1909604;74;21125;-89
2023/08/11 02:51:37;;;;;;;2.62;1.98;;;20.80;99.90;;;;;;1915033;74;21197;-89
2023/08/11 02:54:31;;;;;;;2.65;1.85;;;20.80;99.90;;;;;;1913244;74;21149;-89
2023/08/11 02:57:22;;;;;;;2.72;1.72;;;20.70;99.90;;;;;;1907024;74;21191;-89
2023/08/11 03:00:15;;;;;;;3.50;1.90;;;20.70;99.90;;;;;;1914717;74;21125;-88
2023/08/11 03:03:07;;;;;;;2.52;1.70;;;20.70;99.90;;;;;;1916911;74;21131;-88
2023/08/11 03:05:58;;;;;;;3.33;2.27;;;20.80;99.90;;;;;;1916144;74;21092;-89
2023/08/11 03:08:50;;;;;;;3.62;1.90;;;20.80;99.90;;;;;;1915783;74;21175;-88
2023/08/11 03:11:41;;;;;;;2.25;1.80;;;20.70;99.90;;;;;;1914639;74;21151;-89
2023/08/11 03:14:33;;;;;;;2.90;2.12;;;20.70;99.90;;;;;;1905750;74;21157;-89
2023/08/11 03:17:24;;;;;;;3.62;1.87;;;20.80;99.90;;;;;;1908512;74;21260;-89
2023/08/11 03:20:18;;;;;;;2.47;2.08;;;20.80;99.90;;;;;;1915266;74;21164;-89
2023/08/11 03:25:50;;;;;;;4.08;1.90;;;20.70;99.90;;;;;;1930022;72;22452;-89
2023/08/11 03:28:42;;;;;;;4.15;1.75;;;20.80;99.90;;;;;;1891984;75;21145;-89
2023/08/11 03:31:35;;;;;;;3.55;1.98;;;20.80;99.90;;;;;;1907920;75;21184;-89
2023/08/11 03:34:26;;;;;;;2.27;1.60;;;20.80;99.90;;;;;;1906548;75;21118;-88
2023/08/11 03:37:18;;;;;;;3.72;2.17;;;20.80;99.90;;;;;;1895367;75;21145;-87
2023/08/11 03:42:47;;;;;;;2.37;1.82;;;20.90;99.90;;;;;;1934193;72;22546;-88
2023/08/11 03:45:40;;;;;;;2.67;1.90;;;20.90;99.90;;;;;;1904778;75;21110;-88
2023/08/11 03:48:33;;;;;;;3.62;2.17;;;20.90;99.90;;;;;;1894250;75;21164;-88
2023/08/11 03:51:24;;;;;;;2.33;1.90;;;20.90;99.90;;;;;;1900888;75;21134;-89
2023/08/11 03:54:15;;;;;;;4.75;1.95;;;21.00;99.90;;;;;;1888421;75;21135;-88
2023/08/11 03:57:08;;;;;;;3.33;2.10;;;20.90;99.90;;;;;;1902935;75;21157;-88
2023/08/11 03:59:59;;;;;;;4.53;1.77;;;20.90;99.90;;;;;;1899448;75;21187;-88
2023/08/11 04:02:50;;;;;;;3.50;2.22;;;20.90;99.90;;;;;;1898673;75;21161;-89
2023/08/11 04:05:43;;;;;;;3.87;2.02;;;20.80;99.90;;;;;;1895130;75;21117;-88
2023/08/11 04:08:34;;;;;;;3.85;2.35;;;20.70;99.90;;;;;;1897087;75;21132;-88
2023/08/11 04:11:26;;;;;;;3.08;2.15;;;20.70;99.90;;;;;;1896012;75;21092;-88
2023/08/11 04:14:17;;;;;;;2.20;2.00;;;20.80;99.90;;;;;;1895074;75;21137;-89
2023/08/11 04:17:12;;;;;;;2.77;1.85;;;20.90;99.90;;;;;;1897430;75;21107;-88
2023/08/11 04:20:10;;;;;;;3.50;1.70;;;20.80;99.90;;;;;;1898557;75;21124;-89
2023/08/11 04:22:58;;;;;;;2.65;1.98;;;20.80;99.90;;;;;;1897087;75;21178;-88
2023/08/11 04:25:50;;;;;;;3.77;2.08;;;20.70;99.90;;;;;;1894280;74;21252;-89
2023/08/11 04:28:43;;;;;;;5.42;1.90;;;20.70;99.90;;;;;;1901848;74;21114;-90
2023/08/11 04:31:36;;;;;;;2.22;2.02;;;20.60;99.90;;;;;;1894528;75;21206;-89
2023/08/11 04:34:28;;;;;;;2.90;1.98;;;20.60;99.90;;;;;;1896177;75;21242;-89
2023/08/11 04:37:20;;;;;;;2.95;2.10;;;20.60;99.90;;;;;;1905740;75;21066;-89
2023/08/11 04:40:13;;;;;;;4.45;2.22;;;20.60;99.90;;;;;;1896400;75;21135;-88
2023/08/11 04:45:46;;;;;;;2.87;2.08;;;20.60;99.90;;;;;;1934027;72;22297;-88
2023/08/11 04:48:39;;;;;;;3.35;2.08;;;20.60;99.90;;;;;;1898686;75;21241;-88
2023/08/11 04:51:30;;;;;;;3.12;1.95;;;20.60;99.90;;;;;;1899262;75;21203;-88
2023/08/11 04:54:21;;;;;;;4.17;2.27;;;20.60;99.90;;;;;;1900775;75;21181;-88
2023/08/11 04:57:12;;;;;;;3.05;2.40;;;20.50;99.90;;;;;;1904630;75;21121;-89
2023/08/11 05:00:06;;;;;;;3.77;2.40;;;20.50;99.90;;;;;;1902661;75;21221;-87
2023/08/11 05:02:57;;;;;;;3.00;2.08;;;20.50;99.90;;;;;;1896521;75;21162;-88
2023/08/11 05:05:49;;;;;;;2.80;2.00;;;20.50;99.90;;;;;;1893765;75;21107;-88
2023/08/11 05:08:40;;;;;;;4.22;2.33;;;20.50;99.90;;;;;;1904730;75;21134;-88
2023/08/11 05:11:31;;;;;;;3.92;2.30;;;20.50;99.90;;;;;;1892600;74;21166;-88
2023/08/11 05:14:23;;;;;;;2.52;2.17;;;20.50;99.90;;;;;;1900343;75;21098;-88
2023/08/11 05:17:15;;;;;;;2.33;2.12;;;20.50;99.90;;;;;;1895562;75;21114;-89
2023/08/11 05:20:08;;;;;;;6.47;2.30;;;20.60;99.90;;;;;;1905773;75;21156;-88
2023/08/11 05:23:00;;;;;;;3.00;2.37;;;20.60;99.90;;;;;;1904242;75;21165;-89
2023/08/11 05:25:52;;;;;;;4.37;2.40;;;20.70;99.90;;;;;;1908934;75;21183;-88
2023/08/11 05:28:45;;;;;;;6.33;2.58;;;20.70;99.90;;;;;;1905049;75;21206;-88
2023/08/11 05:31:37;;;;;;;3.55;2.50;;;20.70;99.90;;;;;;1898471;75;21149;-88
2023/08/11 05:34:28;;;;;;;2.70;2.27;;;20.70;99.90;;;;;;1892340;75;21091;-88
2023/08/11 05:37:21;;;;;;;2.60;1.98;;;20.80;99.90;;;;;;1905287;75;21209;-88
2023/08/11 05:40:13;;;;;;;3.75;2.47;;;20.80;99.90;;;;;;1903801;75;21195;-88
2023/08/11 05:45:56;;;;;;;6.80;2.52;;;20.90;99.90;;;;;;1947377;72;22340;-88
2023/08/11 05:48:48;;;;;;;3.92;2.70;;;21.00;99.90;;;;;;1923744;73;21191;-87
2023/08/11 05:51:39;;;;;;;3.70;2.00;;;21.00;99.90;;;;;;1915451;73;21184;-88
2023/08/11 05:54:31;;;;;;;3.55;2.02;;;21.10;99.90;;;;;;1916543;73;21169;-88
2023/08/11 06:00:20;;;;;;;4.08;2.33;;;21.20;99.90;;;;;;1941952;72;22183;-88
2023/08/11 06:03:11;;;;;;;2.98;2.25;;;21.20;99.90;;;;;;1921794;73;21683;-88
2023/08/11 06:06:04;;;;;;;4.95;2.08;;;21.30;99.90;;;;;;1921659;73;21192;-80
2023/08/11 06:11:41;;;;;;;3.65;2.22;;;21.30;99.90;;;;;;1934176;72;22209;-80
2023/08/11 06:14:33;;;;;;;4.62;2.27;;;21.30;99.90;;;;;;1894049;75;21186;-80
2023/08/11 06:17:24;;;;;;;4.42;2.12;;;21.40;99.90;;;;;;1896078;75;21110;-80
2023/08/11 06:20:17;;;;;;;4.60;2.40;;;21.40;99.90;;;;;;1898018;75;21539;-80
2023/08/11 06:23:10;;;;;;;3.62;2.50;;;21.50;99.90;;;;;;1902347;75;21118;-80
2023/08/11 06:26:02;;;;;;;4.33;2.30;;;21.60;99.90;;;;;;1894165;75;21162;-80
2023/08/11 06:28:52;;;;;;;3.83;2.33;;;21.60;99.90;;;;;;1899558;75;21148;-80
2023/08/11 06:31:44;;;;;;;5.05;2.67;;;21.70;99.90;;;;;;1899152;75;21130;-79
2023/08/11 06:34:36;;;;;;;3.72;2.70;;;21.80;99.90;;;;;;1905973;75;21240;-79
2023/08/11 06:37:28;;;;;;;4.30;2.62;;;21.80;99.90;;;;;;1902289;75;21122;-79
2023/08/11 06:40:19;;;;;;;4.35;2.50;;;21.90;99.90;;;;;;1899849;75;21118;-79
2023/08/11 06:43:11;;;;;;;4.42;2.42;;;21.90;99.90;;;;;;1905638;75;21136;-79
2023/08/11 06:46:02;;;;;;;4.00;2.33;;;21.90;99.90;;;;;;1892728;75;21150;-79
2023/08/11 06:48:54;;;;;;;4.28;2.60;;;22.00;99.90;;;;;;1887100;75;21109;-79
2023/08/11 06:51:45;;;;;;;5.60;2.70;;;22.00;99.90;;;;;;1904100;75;21517;-80
2023/08/11 06:54:37;;;;;;;4.17;2.80;;;22.10;99.90;;;;;;1893109;75;21688;-80
2023/08/11 06:57:28;;;;;;;4.10;2.72;;;22.20;99.90;;;;;;1895101;75;21178;-80
2023/08/11 07:00:20;;;;;;;4.05;2.98;;;22.30;99.90;;;;;;1897645;75;21199;-80
2023/08/11 07:03:12;;;;;;;8.70;2.85;;;22.30;99.90;;;;;;1895626;75;21122;-80
2023/08/11 07:06:04;;;;;;;5.47;2.67;;;22.40;99.90;;;;;;1886363;75;21225;-80
2023/08/11 07:08:56;;;;;;;7.47;2.70;;;22.40;99.90;;;;;;1902330;75;21131;-79
2023/08/11 07:11:47;;;;;;;5.85;2.65;;;22.50;99.90;;;;;;1891779;75;21233;-79
2023/08/11 07:14:40;;;;;;;5.33;2.87;;;22.60;99.90;;;;;;1896010;75;21176;-80
2023/08/11 07:20:13;;;;;;;4.17;2.45;;;22.70;99.90;;;;;;1943553;72;22217;-79
2023/08/11 07:25:44;;;;;;;4.87;2.75;;;22.70;99.90;;;;;;1940944;72;22361;-80
2023/08/11 07:31:14;;;;;;;3.15;2.00;;;22.80;99.90;;;;;;1925767;72;22315;-79
2023/08/11 07:34:06;;;;;;;4.20;2.30;;;22.80;99.90;;;;;;1911356;73;21158;-79
2023/08/11 07:36:59;;;;;;;2.95;2.30;;;22.80;99.90;;;;;;1897542;74;21149;-79
2023/08/11 07:39:50;;;;;;;3.12;2.15;;;22.70;99.90;;;;;;1909530;74;21119;-79
2023/08/11 07:42:41;;;;;;;3.62;2.05;;;22.80;99.90;;;;;;1905151;74;21082;-79
2023/08/11 07:45:33;;;;;;;3.05;2.17;;;22.70;99.90;;;;;;1907468;74;21121;-79
2023/08/11 07:48:24;;;;;;;4.03;2.27;;;22.80;99.90;;;;;;1908999;74;21167;-79
2023/08/11 07:51:16;;;;;;;2.60;2.00;;;22.90;99.90;;;;;;1904461;74;21166;-79
2023/08/11 07:56:46;;;;;;;4.70;2.52;;;22.90;99.90;;;;;;1935429;72;22274;-79
2023/08/11 07:59:37;;;;;;;3.47;2.17;;;23.00;99.90;;;;;;1898642;75;21208;-79
2023/08/11 08:02:29;;;;;;;3.95;2.33;;;23.10;99.90;;;;;;1890120;75;21664;-79
2023/08/11 08:05:21;;;;;;;3.40;2.02;;;23.20;99.90;;;;;;1906740;75;21074;-79
2023/08/11 08:08:12;;;;;;;3.17;2.27;;;23.30;99.90;;;;;;1904502;75;21203;-79
2023/08/11 08:11:04;;;;;;;4.92;2.02;;;23.30;99.90;;;;;;1893139;75;21211;-79
2023/08/11 08:13:56;;;;;;;4.97;1.90;;;23.40;99.90;;;;;;1892811;75;21206;-92
2023/08/11 08:16:48;;;;;;;8.83;1.77;;;23.50;99.90;;;;;;1914607;75;21168;-93
2023/08/11 08:19:40;;;;;;;4.22;2.05;;;23.50;99.90;;;;;;1896332;75;21099;-94
2023/08/11 08:22:32;;;;;;;7.62;2.30;;;23.60;99.90;;;;;;1889448;75;21093;-92
2023/08/11 08:25:25;;;;;;;3.10;2.00;;;23.60;99.90;;;;;;1907127;74;21155;-93
2023/08/11 08:28:16;;;;;;;2.10;1.85;;;23.70;99.90;;;;;;1910883;75;21138;-92
2023/08/11 08:31:08;;;;;;;3.72;2.20;;;23.80;99.90;;;;;;1896351;75;21220;-93
2023/08/11 08:34:00;;;;;;;2.65;2.08;;;23.90;99.90;;;;;;1893441;73;21110;-93
2023/08/11 08:36:52;;;;;;;2.77;2.15;;;24.10;99.90;;;;;;1887678;75;21095;-93
2023/08/11 08:39:44;;;;;;;4.25;2.15;;;24.20;99.90;;;;;;1884516;76;21303;-92
2023/08/11 08:42:37;;;;;;;3.67;2.22;;;24.20;99.90;;;;;;1884136;76;21178;-93
2023/08/11 08:45:29;;;;;;;3.35;2.12;;;24.20;99.90;;;;;;1884453;76;21133;-92
2023/08/11 08:48:24;;;;;;;4.20;2.20;;;24.30;99.90;;;;;;1884396;76;21108;-92
2023/08/11 08:51:16;;;;;;;4.50;2.08;;;24.40;99.90;;;;;;1884899;76;21096;-91
2023/08/11 08:54:09;;;;;;;3.62;2.17;;;24.40;99.90;;;;;;1895845;75;21054;-92
2023/08/11 08:57:01;;;;;;;3.92;2.33;;;24.50;99.90;;;;;;1923734;74;21144;-93
2023/08/11 08:59:53;;;;;;;5.45;2.20;;;24.50;99.90;;;;;;1926126;74;21102;-93
2023/08/11 09:02:46;;;;;;;3.62;2.02;;;24.60;99.90;;;;;;1893507;76;21121;-93
2023/08/11 09:05:38;;;;;;;4.78;2.20;;;24.70;99.90;;;;;;1898146;74;21144;-92
2023/08/11 09:08:32;;;;;;;4.08;2.00;;;24.80;99.90;;;;;;1926938;73;21168;-92
2023/08/11 09:11:23;;;;;;;2.15;1.87;;;24.90;99.90;;;;;;1926376;74;21156;-94
2023/08/11 09:14:16;;;;;;;2.17;1.80;;;25.00;99.90;;;;;;1926403;74;21172;-93
2023/08/11 09:17:07;;;;;;;4.67;1.90;;;25.10;99.90;;;;;;1926221;74;21156;-93
2023/08/11 09:20:00;;;;;;;2.47;1.80;;;25.20;99.90;;;;;;1926013;74;21647;-93
2023/08/11 09:22:54;;;;;;;3.25;2.00;;;25.30;99.90;;;;;;1898526;74;21197;-94
2023/08/11 09:25:46;;;;;;;3.55;1.85;;;25.40;99.90;;;;;;1892991;76;21167;-93
2023/08/11 09:28:40;;;;;;;2.20;2.00;;;25.50;99.90;;;;;;1893177;76;21106;-93
2023/08/11 09:31:32;;;;;;;3.77;1.85;;;25.60;99.90;;;;;;1893203;76;21098;-93
2023/08/11 09:34:24;;;;;;;6.15;2.30;;;25.70;99.90;;;;;;1897917;74;21202;-93
2023/08/11 09:37:16;;;;;;;3.75;2.30;;;25.70;99.90;;;;;;1926242;74;21098;-94
2023/08/11 09:40:11;;;;;;;3.65;2.10;;;25.70;99.90;;;;;;1926643;74;21535;-93
2023/08/11 09:43:02;;;;;;;3.05;1.92;;;25.80;99.90;;;;;;1908526;74;21179;-93
2023/08/11 09:45:59;;;;;;;3.87;1.95;;;25.90;99.90;;;;;;1908061;75;21113;-92
2023/08/11 09:48:49;;;;;;;2.83;1.57;;;26.00;99.90;;;;;;1897696;75;21197;-93
2023/08/11 09:51:44;;;;;;;2.27;1.95;;;26.10;99.90;;;;;;1908586;74;21113;-93
2023/08/11 09:54:36;;;;;;;3.33;1.90;;;26.20;99.90;;;;;;1928085;74;21134;-90
2023/08/11 09:57:29;;;;;;;2.65;1.80;;;26.30;99.90;;;;;;1897723;74;21228;-92
2023/08/11 10:00:22;;;;;;;4.05;1.60;;;26.40;99.90;;;;;;1906088;73;21119;-92
2023/08/11 10:03:26;;;;;;;3.77;1.80;;;26.50;99.90;;;;;;1914907;75;21598;-92
2023/08/11 10:56:02;;;;;;;2.55;1.47;;;27.90;99.90;;;;;;1932482;72;22125;-89
2023/08/11 10:58:56;;;;;;;3.30;1.42;;;28.00;99.90;;;;;;1891346;75;21476;-78
2023/08/11 11:01:49;;;;;;;2.85;1.72;;;28.00;99.90;;;;;;1892526;75;21121;-80
2023/08/11 11:04:43;;;;;;;3.25;1.72;;;28.10;99.90;;;;;;1894389;75;21165;-80
2023/08/11 11:07:38;;;;;;;3.65;1.75;;;28.30;99.90;;;;;;1902233;75;21813;-80
2023/08/11 11:10:29;;;;;;;3.25;1.70;;;28.40;99.90;;;;;;1901758;75;21094;-80
2023/08/11 11:13:21;;;;;;;2.90;1.90;;;28.40;99.90;;;;;;1834714;77;21172;-79
2023/08/11 11:16:13;;;;;;;4.30;1.95;;;28.50;99.90;;;;;;1900585;75;21175;-80
2023/08/11 11:21:43;;;;;;;2.55;1.80;;;28.80;99.90;;;;;;1928349;72;22265;-79
2023/08/11 11:24:35;;;;;;;2.42;1.95;;;28.90;99.90;;;;;;1897378;75;21181;-79
2023/08/11 11:27:26;;;;;;;1.70;1.60;;;28.90;99.90;;;;;;1897788;75;21108;-79
2023/08/11 11:30:18;;;;;;;5.58;1.80;;;29.00;99.90;;;;;;1906960;75;21573;-79
2023/08/11 11:33:09;;;;;;;3.25;1.82;;;29.10;99.90;;;;;;1893248;75;21175;-79
2023/08/11 11:36:01;;;;;;;2.85;1.87;;;29.10;99.90;;;;;;1861537;76;21586;-79
2023/08/11 11:41:35;;;;;;;3.67;1.80;;;29.20;99.90;;;;;;1945050;72;22264;-80
2023/08/11 11:44:27;;;;;;;1.80;1.42;;;29.30;99.90;;;;;;1926137;73;21106;-79
2023/08/11 11:47:18;;;;;;;1.57;1.45;;;29.30;99.90;;;;;;1924383;73;21051;-80
2023/08/11 11:50:10;;;;;;;2.58;1.52;;;29.40;99.90;;;;;;1943395;73;21170;-79
2023/08/11 11:53:01;;;;;;;4.25;1.72;;;29.50;99.90;;;;;;1915967;75;21050;-79
2023/08/11 11:55:53;;;;;;;2.20;1.80;;;29.50;99.90;;;;;;1941401;73;21118;-79
2023/08/11 11:58:46;;;;;;;3.87;1.82;;;29.60;99.90;;;;;;1928370;73;21594;-79
2023/08/11 12:04:17;;;;;;;1.45;1.35;;;29.70;99.90;;;;;;1929929;72;22268;-81
2023/08/11 12:07:09;;;;;;;5.20;1.70;;;29.80;99.90;;;;;;1882707;75;21184;-80
2023/08/11 12:10:00;;;;;;;1.95;1.40;;;29.90;99.90;;;;;;1890129;75;21137;-80
2023/08/11 12:13:00;;;;;;;1.90;1.45;;;30.00;99.90;;;;;;1900322;75;21212;-80
2023/08/11 12:15:51;;;;;;;1.85;1.30;;;30.00;99.90;;;;;;1905799;75;21184;-80
2023/08/11 12:21:21;;;;;;;3.00;1.30;;;30.20;99.90;;;;;;1933250;72;22505;-80
2023/08/11 12:24:15;;;;;;;2.45;1.50;;;30.30;99.90;;;;;;1935085;73;21128;-80
2023/08/11 12:27:07;;;;;;;2.75;1.50;;;30.50;99.90;;;;;;1945179;73;21079;-80
2023/08/11 12:32:37;;;;;;;2.22;1.98;;;30.60;99.90;;;;;;1961534;72;22291;-80
2023/08/11 12:35:29;;;;;;;2.37;1.52;;;30.70;99.90;;;;;;1927201;73;21106;-80
2023/08/11 12:38:21;;;;;;;2.33;1.47;;;30.90;99.90;;;;;;1936518;73;21119;-81
2023/08/11 12:41:12;;;;;;;1.55;1.45;;;30.80;99.90;;;;;;1928508;73;21059;-80
2023/08/11 12:44:03;;;;;;;3.52;1.60;;;30.80;99.90;;;;;;1918520;73;21156;-80
2023/08/11 12:46:55;;;;;;;2.08;1.42;;;30.60;99.90;;;;;;1861022;76;21186;-80
2023/08/11 12:49:46;;;;;;;2.83;1.35;;;30.70;99.90;;;;;;1933653;73;21164;-80
2023/08/11 12:52:38;;;;;;;2.10;1.60;;;30.80;99.90;;;;;;1915721;75;22300;-80
2023/08/11 12:55:29;;;;;;;1.50;1.30;;;30.90;99.90;;;;;;1918981;73;21122;-80
2023/08/11 12:58:22;;;;;;;2.75;1.50;;;30.90;99.90;;;;;;1922741;73;21124;-81
2023/08/11 13:01:15;;;;;;;3.22;1.35;;;31.00;99.90;;;;;;1916104;73;21136;-80
2023/08/11 13:04:08;;;;;;;3.27;1.47;;;31.00;99.90;;;;;;1935167;73;21165;-80
2023/08/11 13:07:00;;;;;;;1.92;1.40;;;31.10;99.90;;;;;;1930102;73;21125;-81
2023/08/11 13:12:30;;;;;;;1.50;1.40;;;31.30;99.90;;;;;;1930515;72;22714;-81
2023/08/11 13:18:00;;;;;;;1.35;1.25;;;31.40;99.90;;;;;;1941506;72;22249;-80
2023/08/11 13:20:52;;;;;;;1.70;1.52;;;31.50;99.90;;;;;;1883136;75;21171;-81
2023/08/11 13:26:33;;;;;;;2.62;1.40;;;31.60;99.90;;;;;;1969652;72;22206;-80
2023/08/11 13:32:04;;;;;;;1.95;1.20;;;31.60;99.90;;;;;;1938909;72;23024;-82
2023/08/11 13:34:55;;;;;;;3.22;1.10;;;31.70;99.90;;;;;;1909361;73;21203;-80
2023/08/11 13:37:47;;;;;;;2.67;1.20;;;31.80;99.90;;;;;;1887132;75;21170;-81
2023/08/11 13:40:38;;;;;;;2.70;1.10;;;32.00;99.90;;;;;;1893346;75;21106;-80
2023/08/11 13:43:29;;;;;;;2.10;1.00;;;31.90;99.60;;;;;;1887808;75;21170;-80
2023/08/11 13:46:20;;;;;;;2.60;1.40;;;31.90;99.20;;;;;;1903717;75;21191;-80
2023/08/11 13:49:12;;;;;;;2.12;1.47;;;32.00;99.00;;;;;;1904556;75;21051;-81
2023/08/11 13:52:04;;;;;;;1.30;1.20;;;32.10;98.50;;;;;;1903298;75;21146;-82
2023/08/11 13:54:59;;;;;;;1.40;1.10;;;32.10;98.00;;;;;;1906966;75;21176;-80
2023/08/11 13:57:51;;;;;;;2.08;1.10;;;32.20;97.80;;;;;;1913402;75;21115;-80
2023/08/11 14:03:21;;;;;;;1.95;1.30;;;32.40;97.40;;;;;;1929534;72;22167;-88
2023/08/11 14:06:13;;;;;;;2.85;1.40;;;32.80;96.50;;;;;;1929310;73;21172;-87
2023/08/11 14:09:05;;;;;;;3.30;1.65;;;33.10;95.80;;;;;;1922490;73;21102;-86
2023/08/11 14:14:37;;;;;;;1.50;1.10;;;33.70;94.00;;;;;;1951949;72;22589;-89
2023/08/11 14:20:13;;;;;;;2.12;1.15;;;34.10;92.40;;;;;;1946580;72;22216;-87
2023/08/11 14:23:04;;;;;;;1.20;1.10;;;34.20;92.00;;;;;;1921147;73;21156;-87
2023/08/11 14:25:56;;;;;;;1.35;1.02;;;34.50;91.40;;;;;;1939883;73;21183;-88
2023/08/11 14:31:33;;;;;;;1.55;0.90;;;34.50;90.50;;;;;;1955826;72;22194;-91
2023/08/11 14:34:24;;;;;;;2.40;1.20;;;34.90;87.80;;;;;;1904861;73;21184;-90
2023/08/11 14:37:15;;;;;;;1.10;1.00;;;34.80;86.20;;;;;;1884106;75;21099;-89
2023/08/11 14:40:10;;;;;;;1.55;1.00;;;34.90;84.80;;;;;;1901213;75;21172;-91
2023/08/11 14:45:43;;;;;;;2.65;1.20;;;35.00;82.70;;;;;;1929178;72;22252;-92
2023/08/11 14:51:16;;;;;;;1.60;0.90;;;35.50;76.90;;;;;;1945032;72;22249;-92
2023/08/11 14:54:08;;;;;;;1.47;1.00;;;35.50;74.90;;;;;;1918448;73;21126;-90
2023/08/11 14:56:59;;;;;;;2.47;0.95;;;35.60;75.00;;;;;;1919876;73;21597;-89
2023/08/11 14:59:51;;;;;;;1.60;1.20;;;35.80;73.80;;;;;;1917976;73;21197;-91
2023/08/11 15:02:43;;;;;;;1.40;1.20;;;35.80;74.20;;;;;;1883710;75;21098;-90
2023/08/11 15:05:35;;;;;;;1.25;1.00;;;35.50;73.70;;;;;;1917074;75;21113;-91
2023/08/11 15:12:19;;;;;;;1.45;1.00;;;36.60;70.30;;;;;;2013882;71;22104;-92
2023/08/11 15:15:11;;;;;;;2.22;0.90;;;36.60;69.40;;;;;;1976961;72;21655;-91
2023/08/11 15:18:03;;;;;;;1.00;0.98;;;36.80;68.70;;;;;;2039831;70;21106;-91
2023/08/11 15:43:20;;;;;;;1.70;0.90;;;36.90;62.70;;;;;;1954954;72;22233;-90
2023/08/11 15:46:12;;;;;;;2.27;1.07;;;37.10;62.20;;;;;;1884374;76;21110;-90
2023/08/11 15:49:03;;;;;;;1.07;0.90;;;37.00;61.90;;;;;;1912431;75;21082;-90
2023/08/11 15:51:55;;;;;;;0.90;0.90;;;36.80;62.50;;;;;;1915518;75;21175;-89
2023/08/11 16:13:34;;;;;;;1.92;0.90;;;37.10;60.90;;;;;;2077906;68;22171;-88
2023/08/11 16:16:25;;;;;;;1.55;1.45;;;37.80;57.80;;;;;;2002142;70;21056;-89
2023/08/11 16:52:23;;;;;;;2.58;1.00;;;37.60;56.60;;;;;;1972340;72;23381;-91
2023/08/11 16:55:14;;;;;;;1.25;0.75;;;37.60;56.50;;;;;;1916071;74;21102;-92
2023/08/11 16:58:07;;;;;;;1.17;0.90;;;37.60;56.50;;;;;;1911675;74;21156;-89
2023/08/11 17:00:59;;;;;;;0.98;0.70;;;37.50;56.70;;;;;;1907135;74;21192;-90
2023/08/11 17:03:50;;;;;;;1.10;0.90;;;37.30;57.10;;;;;;1930197;74;21151;-90
2023/08/11 17:06:42;;;;;;;0.95;0.85;;;37.20;57.80;;;;;;1904387;74;21132;-91
2023/08/11 17:09:33;;;;;;;1.00;0.90;;;37.30;57.70;;;;;;1937848;74;21184;-90
2023/08/11 17:12:25;;;;;;;3.20;1.00;;;37.10;57.80;;;;;;1909699;74;21290;-90
2023/08/11 17:15:17;;;;;;;1.17;0.98;;;36.70;58.70;;;;;;1935541;74;21118;-91
2023/08/11 17:22:00;;;;;;;1.00;0.85;;;36.10;61.10;;;;;;2098038;68;22272;-90
2023/08/11 17:24:52;;;;;;;1.22;1.10;;;35.60;62.40;;;;;;2056725;69;21703;-90
2023/08/11 17:27:44;;;;;;;2.52;1.27;;;35.40;63.10;;;;;;2048855;69;21163;-92
2023/08/11 17:33:22;;;;;;;1.27;0.90;;;34.80;64.40;;;;;;1975298;72;22155;-92
2023/08/11 17:36:13;;;;;;;1.90;1.00;;;34.70;64.90;;;;;;1906935;73;21102;-92
2023/08/11 17:39:06;;;;;;;1.35;0.90;;;34.60;65.30;;;;;;1905702;75;21160;-90
2023/08/11 17:42:04;;;;;;;2.25;1.10;;;34.40;65.30;;;;;;1915471;74;21087;-91
2023/08/11 17:44:56;;;;;;;1.10;1.00;;;34.40;65.80;;;;;;1908522;75;21157;-91
2023/08/11 17:47:47;;;;;;;1.40;0.98;;;34.50;66.10;;;;;;1904666;74;21125;-91
2023/08/11 17:50:39;;;;;;;1.10;1.00;;;34.40;66.30;;;;;;1920931;74;21151;-90
2023/08/11 17:56:55;;;;;;;2.50;1.30;;;33.50;68.40;;;;;;1996480;71;28364;-91
2023/08/11 17:59:46;;;;;;;1.35;1.25;;;33.40;69.20;;;;;;1987335;72;21553;-90
2023/08/11 18:02:37;;;;;;;2.25;1.30;;;33.00;70.00;;;;;;2049163;69;21139;-90
2023/08/11 18:05:28;;;;;;;2.02;1.00;;;32.70;71.10;;;;;;2023421;71;21097;-90
2023/08/11 18:08:20;;;;;;;1.20;1.10;;;32.50;71.60;;;;;;2011597;71;21172;-91
2023/08/11 18:11:12;;;;;;;1.52;1.10;;;32.30;72.30;;;;;;2056125;70;21130;-91
2023/08/11 18:16:46;;;;;;;1.52;1.20;;;32.00;73.80;;;;;;1956869;72;22130;-90
2023/08/11 18:19:39;;;;;;;3.22;1.40;;;31.80;74.10;;;;;;1904759;75;21116;-90
2023/08/11 18:22:30;;;;;;;2.55;1.25;;;31.70;74.70;;;;;;1872905;76;21118;-91
2023/08/11 19:45:10;;;;;;;3.75;1.80;;;29.00;88.50;;;;;;1933541;72;22153;-83
2023/08/11 19:48:03;;;;;;;2.58;1.92;;;28.90;89.00;;;;;;1899339;74;21590;-83
2023/08/11 19:50:56;;;;;;;2.62;1.50;;;28.70;89.50;;;;;;1915331;75;21122;-83
2023/08/11 19:56:27;;;;;;;2.12;1.27;;;28.60;90.20;;;;;;1942218;72;22284;-83
2023/08/11 20:01:57;;;;;;;1.92;1.52;;;28.40;90.80;;;;;;1936054;72;22169;-84